Urb Sabana Gdns, Puerto Rico
Current Conditions -  °F | °C
As of 6:56 AM on Thursday 23 Oct 2014 (Local Time) from TJSJ Reporting Station
Scattered Clouds Scattered Clouds  
Wind Chill: 79°   Ceiling: Unl
Heat Index: 82°   Visibility: 10mi
Dew Point: 73°   Wind: 5mph
Humidity: 82%   Direction: 160°SSE
Pressure: 29.93"   Gusts: NA
Location:  18.4298°N, 65.9816°W
Report Text: TJSJ 231056Z 16004KT 10SM FEW028 SCT100 26/23 A2993 RMK AO2 SLP135 SHRA DSNT S T02610228
Loading
Personal Weather Stations






























Interactive Weather Map
Tropical Storm Tracking
New forecast layout! Learn more

10-Day Weather Forecast

Advertisements
Track Severe Weather on mobile